Terminal Aerodrome Forecast
Issued by NWS

Home | Current Version | Previous Version | Text Only | Print | Product List | Glossary On
Versions: 1 2 3 4 5 6 7 8 9 10 11 12 13
000
FTUS45 KRIW 251951 AAA
TAFBPI
TAF AMD
KBPI 251951Z 2520/2618 VRB06KT P6SM SCT050 BKN090
      TEMPO 2522/2601 4SM -TSRA OVC020CB
     FM260200 30008KT P6SM VCSH SCT050 BKN070
     FM260400 VRB06KT P6SM SCT070 SCT200
     FM261500 VRB05KT P6SM BKN070=

USA.gov is the U.S. government's official web portal to all federal, state and local government web resources and services.